Time;durP1;ratioP1;P1;durP2;ratioP2;P2;SDS_P1;SDS_P2;PMS_P1;PMS_P2;Temp;Humidity;BMP_temperature;BMP_pressure;BME280_temperature;BME280_humidity;BME280_pressure;Samples;Min_cycle;Max_cycle;Signal;HPM_P1;HPM_P2
2021/12/29 00:00:25;;;;;;;40.35;17.55;;;7.90;99.90;;;;;;5020591;28;20482;-71
2021/12/29 00:02:52;;;;;;;37.38;16.40;;;7.90;99.90;;;;;;5009604;28;20137;-71
2021/12/29 00:05:18;;;;;;;45.67;17.77;;;7.90;99.90;;;;;;5015034;28;20100;-70
2021/12/29 00:07:44;;;;;;;35.67;16.52;;;7.90;99.90;;;;;;5026750;28;20045;-71
2021/12/29 00:10:11;;;;;;;35.97;14.13;;;7.90;99.90;;;;;;5013237;28;20368;-71
2021/12/29 00:12:41;;;;;;;38.72;14.93;;;7.90;99.90;;;;;;5023429;28;20046;-71
2021/12/29 00:15:11;;;;;;;46.70;17.83;;;7.90;99.90;;;;;;5013306;28;20037;-71
2021/12/29 00:17:40;;;;;;;57.97;17.52;;;7.90;99.90;;;;;;5002168;28;20046;-71
2021/12/29 00:20:06;;;;;;;42.25;15.15;;;7.90;99.90;;;;;;5008630;28;20057;-71
2021/12/29 00:22:32;;;;;;;43.05;15.55;;;7.90;99.90;;;;;;5010930;28;20121;-69
2021/12/29 00:24:57;;;;;;;50.13;15.48;;;7.90;99.90;;;;;;5020688;28;20136;-68
2021/12/29 00:27:23;;;;;;;51.42;15.90;;;7.90;99.90;;;;;;5021627;28;20209;-69
2021/12/29 00:29:48;;;;;;;74.57;18.75;;;7.80;99.90;;;;;;5032129;28;20052;-67
2021/12/29 00:32:14;;;;;;;51.53;15.13;;;7.90;99.90;;;;;;5033477;28;20057;-69
2021/12/29 00:34:40;;;;;;;46.03;15.63;;;7.80;99.90;;;;;;5024425;28;20520;-68
2021/12/29 00:37:05;;;;;;;45.35;15.98;;;7.90;99.90;;;;;;5008892;28;20128;-69
2021/12/29 00:39:31;;;;;;;43.67;14.45;;;7.80;99.90;;;;;;5022930;28;20056;-70
2021/12/29 00:41:56;;;;;;;52.22;15.07;;;7.90;99.90;;;;;;5037339;28;20037;-69
2021/12/29 00:44:22;;;;;;;55.90;14.23;;;7.90;99.90;;;;;;5023774;28;20075;-69
2021/12/29 00:46:52;;;;;;;49.95;13.85;;;7.90;99.90;;;;;;5025418;28;20045;-68
2021/12/29 00:49:19;;;;;;;58.72;12.75;;;7.90;99.90;;;;;;5002099;28;20117;-69
2021/12/29 00:51:45;;;;;;;38.38;11.57;;;7.90;99.90;;;;;;5026692;28;20060;-70
2021/12/29 00:54:10;;;;;;;42.78;12.98;;;7.90;99.90;;;;;;5019452;28;20042;-68
2021/12/29 00:56:37;;;;;;;50.72;12.50;;;8.00;99.90;;;;;;5028079;28;20180;-68
2021/12/29 00:59:02;;;;;;;38.92;11.60;;;8.00;99.90;;;;;;5005785;28;20409;-69
2021/12/29 01:01:29;;;;;;;47.97;11.25;;;8.00;99.90;;;;;;5025606;28;20049;-69
2021/12/29 01:03:55;;;;;;;44.90;12.07;;;8.00;99.90;;;;;;5021885;28;20060;-69
2021/12/29 01:06:20;;;;;;;46.00;12.68;;;8.00;99.90;;;;;;5020947;28;20064;-69
2021/12/29 01:08:46;;;;;;;44.72;13.02;;;8.10;99.90;;;;;;5026268;28;20037;-70
2021/12/29 01:11:12;;;;;;;47.92;12.65;;;8.00;99.90;;;;;;5026956;28;20053;-69
2021/12/29 01:13:45;;;;;;;44.15;14.98;;;8.00;99.90;;;;;;5027715;28;20064;-68
2021/12/29 01:18:56;;;;;;;46.75;16.00;;;8.10;99.90;;;;;;5013716;28;20478;-68
2021/12/29 01:21:21;;;;;;;43.35;15.75;;;8.10;99.90;;;;;;5022654;28;20136;-68
2021/12/29 01:23:47;;;;;;;49.38;16.98;;;8.10;99.90;;;;;;5005482;28;20477;-68
2021/12/29 01:26:12;;;;;;;49.75;17.40;;;8.10;99.90;;;;;;5023307;28;20413;-68
2021/12/29 01:28:38;;;;;;;45.63;16.98;;;8.10;99.90;;;;;;5016908;28;20037;-69
2021/12/29 01:31:04;;;;;;;48.88;16.55;;;8.10;99.90;;;;;;5022362;28;20082;-68
2021/12/29 01:33:29;;;;;;;47.95;17.05;;;8.20;99.90;;;;;;5027756;28;20450;-68
2021/12/29 01:35:55;;;;;;;34.40;16.15;;;8.20;99.90;;;;;;5026571;28;20053;-68
2021/12/29 01:38:20;;;;;;;37.63;15.27;;;8.20;99.90;;;;;;5021056;28;20053;-68
2021/12/29 01:40:49;;;;;;;41.75;15.77;;;8.20;99.90;;;;;;5022448;28;20458;-68
2021/12/29 01:43:15;;;;;;;29.52;13.60;;;8.20;99.90;;;;;;5011033;28;20607;-66
2021/12/29 01:45:41;;;;;;;27.33;13.55;;;8.20;99.90;;;;;;5021719;28;20342;-65
2021/12/29 01:48:06;;;;;;;30.60;14.68;;;8.20;99.90;;;;;;5022360;28;20046;-66
2021/12/29 01:50:33;;;;;;;28.02;13.35;;;8.20;99.90;;;;;;5007721;28;20046;-66
2021/12/29 01:53:07;;;;;;;28.23;12.93;;;8.20;99.90;;;;;;5022291;28;20421;-68
2021/12/29 01:55:32;;;;;;;21.73;12.55;;;8.20;99.90;;;;;;5014832;28;20506;-69
2021/12/29 01:57:59;;;;;;;26.90;12.75;;;8.20;99.90;;;;;;5007075;28;20054;-69
2021/12/29 02:00:28;;;;;;;25.00;11.70;;;8.20;99.90;;;;;;5006014;28;20057;-68
2021/12/29 02:02:53;;;;;;;22.50;11.38;;;8.20;99.90;;;;;;5018510;28;20076;-67
2021/12/29 02:05:19;;;;;;;17.25;10.23;;;8.20;99.90;;;;;;5023167;28;20071;-67
2021/12/29 02:07:45;;;;;;;15.85;9.85;;;8.20;99.90;;;;;;5012976;28;20683;-67
2021/12/29 02:10:15;;;;;;;23.25;11.43;;;8.20;99.90;;;;;;5019658;28;20393;-67
2021/12/29 02:12:41;;;;;;;22.00;11.40;;;8.20;99.90;;;;;;5024167;28;20145;-67
2021/12/29 02:15:07;;;;;;;15.82;10.38;;;8.20;99.90;;;;;;5022015;28;20128;-67
2021/12/29 02:17:33;;;;;;;20.08;9.27;;;8.20;99.90;;;;;;5009036;28;20057;-67
2021/12/29 02:20:01;;;;;;;22.15;10.85;;;8.20;99.90;;;;;;5019076;28;20041;-67
2021/12/29 02:22:38;;;;;;;18.02;9.05;;;8.20;99.90;;;;;;5025530;28;20076;-67
2021/12/29 02:27:46;;;;;;;12.82;9.95;;;8.20;99.90;;;;;;5013945;28;20045;-69
2021/12/29 02:30:15;;;;;;;12.80;8.27;;;8.20;99.90;;;;;;5020281;28;20057;-69
2021/12/29 02:32:42;;;;;;;13.32;9.40;;;8.20;99.90;;;;;;5008393;28;20505;-69
2021/12/29 02:35:08;;;;;;;16.02;9.85;;;8.30;99.90;;;;;;5021551;28;20049;-69
2021/12/29 02:37:34;;;;;;;15.02;9.75;;;8.30;99.90;;;;;;5001160;28;20073;-69
2021/12/29 02:39:59;;;;;;;15.90;10.45;;;8.20;99.90;;;;;;5013272;28;20089;-69
2021/12/29 02:42:28;;;;;;;20.92;10.15;;;8.20;99.90;;;;;;5022605;28;20485;-69
2021/12/29 02:44:54;;;;;;;17.08;10.32;;;8.20;99.90;;;;;;5027528;28;20049;-69
2021/12/29 02:47:20;;;;;;;17.13;10.48;;;8.30;99.90;;;;;;5025616;28;20053;-69
2021/12/29 02:49:46;;;;;;;16.40;9.13;;;8.30;99.90;;;;;;5006702;28;20044;-69
2021/12/29 02:52:14;;;;;;;15.00;9.98;;;8.30;99.90;;;;;;5018901;28;20073;-69
2021/12/29 02:54:40;;;;;;;22.15;9.00;;;8.30;99.90;;;;;;5013799;28;20081;-69
2021/12/29 02:57:06;;;;;;;15.27;9.52;;;8.30;99.90;;;;;;4993597;28;20423;-69
2021/12/29 02:59:32;;;;;;;14.68;8.50;;;8.30;99.90;;;;;;5025216;28;20045;-69
2021/12/29 03:01:58;;;;;;;14.20;9.05;;;8.30;99.90;;;;;;5010962;28;20158;-69
2021/12/29 03:04:23;;;;;;;16.90;10.18;;;8.30;99.90;;;;;;5018702;28;20045;-69
2021/12/29 03:06:49;;;;;;;14.48;9.95;;;8.20;99.90;;;;;;5024984;28;20046;-69
2021/12/29 03:09:18;;;;;;;16.38;9.35;;;8.30;99.90;;;;;;5026420;28;20045;-69
2021/12/29 03:11:45;;;;;;;12.30;8.32;;;8.20;99.90;;;;;;5016141;28;20038;-68
2021/12/29 03:14:11;;;;;;;13.45;8.48;;;8.20;99.90;;;;;;5028783;28;20090;-69
2021/12/29 03:16:37;;;;;;;13.20;8.23;;;8.30;99.90;;;;;;5018662;28;20041;-68
2021/12/29 03:19:04;;;;;;;19.75;9.43;;;8.20;99.90;;;;;;5022916;28;20390;-68
2021/12/29 03:21:31;;;;;;;14.45;7.97;;;8.30;99.90;;;;;;5011114;28;20046;-68
2021/12/29 03:23:57;;;;;;;16.10;9.57;;;8.30;99.90;;;;;;5009217;28;20120;-69
2021/12/29 03:26:22;;;;;;;16.75;9.77;;;8.30;99.90;;;;;;5010942;28;20097;-69
2021/12/29 03:28:49;;;;;;;16.13;10.35;;;8.30;99.90;;;;;;5010708;28;20058;-69
2021/12/29 03:31:17;;;;;;;18.80;9.80;;;8.30;99.90;;;;;;4991763;28;20450;-69
2021/12/29 03:33:44;;;;;;;20.63;10.20;;;8.30;99.90;;;;;;5027457;28;20056;-69
2021/12/29 03:36:11;;;;;;;26.20;11.52;;;8.30;99.90;;;;;;5001260;28;20037;-68
2021/12/29 03:38:39;;;;;;;23.38;10.68;;;8.30;99.90;;;;;;5019278;28;20398;-69
2021/12/29 03:41:08;;;;;;;18.13;11.10;;;8.30;99.90;;;;;;5029023;28;20077;-69
2021/12/29 03:43:35;;;;;;;16.27;9.30;;;8.30;99.90;;;;;;5019098;28;20056;-68
2021/12/29 03:46:04;;;;;;;15.25;9.70;;;8.30;99.90;;;;;;5014970;28;20389;-69
2021/12/29 03:48:30;;;;;;;14.30;9.75;;;8.30;99.90;;;;;;5012038;28;20049;-68
2021/12/29 03:50:57;;;;;;;20.90;9.80;;;8.30;99.90;;;;;;5028105;28;20440;-69
2021/12/29 03:53:23;;;;;;;17.77;9.27;;;8.30;99.90;;;;;;5019722;28;20053;-68
2021/12/29 03:55:50;;;;;;;15.93;9.82;;;8.30;99.90;;;;;;4996198;28;20057;-69
2021/12/29 03:58:17;;;;;;;19.65;10.20;;;8.20;99.90;;;;;;4992020;28;20049;-69
2021/12/29 04:00:42;;;;;;;17.70;9.35;;;8.30;99.90;;;;;;5010940;28;20057;-69
2021/12/29 04:03:08;;;;;;;15.85;9.25;;;8.30;99.90;;;;;;5029109;28;20041;-69
2021/12/29 04:05:34;;;;;;;22.77;11.35;;;8.30;99.90;;;;;;5022281;28;20049;-69
2021/12/29 04:08:01;;;;;;;21.65;10.38;;;8.30;99.90;;;;;;5017584;28;20053;-68
2021/12/29 04:10:27;;;;;;;18.25;10.70;;;8.30;99.90;;;;;;5028106;28;20045;-68
2021/12/29 04:12:53;;;;;;;26.85;11.90;;;8.30;99.90;;;;;;5022343;28;20057;-69
2021/12/29 04:15:19;;;;;;;23.38;10.85;;;8.30;99.90;;;;;;5021896;28;20062;-69
2021/12/29 04:17:46;;;;;;;19.45;11.70;;;8.30;99.90;;;;;;5008040;28;20053;-69
2021/12/29 04:23:04;;;;;;;26.13;10.93;;;8.30;99.90;;;;;;5011966;28;20476;-69
2021/12/29 04:25:34;;;;;;;23.25;12.10;;;8.30;99.90;;;;;;5010107;28;20050;-69
2021/12/29 04:28:01;;;;;;;20.55;11.90;;;8.30;99.90;;;;;;4990806;28;20072;-69
2021/12/29 04:30:27;;;;;;;30.52;12.82;;;8.30;99.90;;;;;;5013752;28;20083;-69
2021/12/29 04:32:53;;;;;;;21.00;11.75;;;8.30;99.90;;;;;;5011438;28;20049;-69
2021/12/29 04:35:20;;;;;;;31.42;14.57;;;8.30;99.90;;;;;;5022031;28;20516;-69
2021/12/29 04:37:46;;;;;;;26.10;13.13;;;8.30;99.90;;;;;;5027337;28;20088;-69
2021/12/29 04:40:12;;;;;;;26.40;14.82;;;8.30;99.90;;;;;;5026475;28;20092;-68
2021/12/29 04:42:38;;;;;;;38.47;14.23;;;8.30;99.90;;;;;;5009149;28;20045;-69
2021/12/29 04:45:04;;;;;;;31.33;13.52;;;8.30;99.90;;;;;;5023655;28;20041;-69
2021/12/29 04:47:31;;;;;;;37.63;13.57;;;8.30;99.90;;;;;;5015168;28;20060;-69
2021/12/29 04:50:00;;;;;;;29.05;13.23;;;8.30;99.90;;;;;;5019432;28;20041;-69
2021/12/29 04:52:30;;;;;;;31.65;12.38;;;8.30;99.90;;;;;;5009537;28;20046;-69
2021/12/29 04:54:57;;;;;;;27.10;12.05;;;8.30;99.90;;;;;;5009481;28;20556;-69
2021/12/29 04:57:23;;;;;;;24.70;10.82;;;8.30;99.90;;;;;;4992959;28;20100;-69
2021/12/29 04:59:48;;;;;;;32.55;12.48;;;8.30;99.90;;;;;;5009774;28;20051;-69
2021/12/29 05:02:14;;;;;;;24.13;11.93;;;8.30;99.90;;;;;;5023843;28;20158;-69
2021/12/29 05:04:55;;;;;;;36.58;12.93;;;8.30;99.90;;;;;;5012878;28;20718;-69
2021/12/29 05:10:04;;;;;;;;;;;8.30;99.90;;;;;;5012861;28;20045;-69
2021/12/29 05:12:30;;;;;;;27.27;12.30;;;8.30;99.90;;;;;;5018106;28;20416;-69
2021/12/29 05:14:55;;;;;;;34.22;12.65;;;8.30;99.90;;;;;;5009013;28;20045;-69
2021/12/29 05:17:21;;;;;;;32.97;12.80;;;8.20;99.90;;;;;;5008216;28;20491;-69
2021/12/29 05:19:46;;;;;;;25.95;11.98;;;8.30;99.90;;;;;;5009862;28;20045;-69
2021/12/29 05:22:12;;;;;;;30.52;13.18;;;8.20;99.90;;;;;;5007898;28;20108;-69
2021/12/29 05:24:38;;;;;;;34.63;11.68;;;8.30;99.90;;;;;;5008464;28;20049;-69
2021/12/29 05:27:04;;;;;;;39.58;13.20;;;8.30;99.90;;;;;;4998413;28;20054;-68
2021/12/29 05:29:30;;;;;;;36.15;13.20;;;8.30;99.90;;;;;;4990763;28;20050;-69
2021/12/29 05:31:55;;;;;;;32.88;13.25;;;8.30;99.90;;;;;;5008558;28;20037;-69
2021/12/29 05:34:21;;;;;;;33.40;13.48;;;8.30;99.90;;;;;;5020631;28;20049;-69
2021/12/29 05:36:47;;;;;;;31.52;12.15;;;8.30;99.90;;;;;;5025348;28;20068;-69
2021/12/29 05:39:12;;;;;;;32.88;14.00;;;8.20;99.90;;;;;;5010513;28;20408;-69
2021/12/29 05:41:38;;;;;;;32.58;14.80;;;8.30;99.90;;;;;;5016360;28;20037;-69
2021/12/29 05:44:04;;;;;;;34.15;12.60;;;8.30;99.90;;;;;;5026219;28;20409;-69
2021/12/29 05:46:29;;;;;;;39.05;12.63;;;8.30;99.90;;;;;;5028469;28;20057;-69
2021/12/29 05:48:55;;;;;;;27.15;11.50;;;8.30;99.90;;;;;;5021834;28;20068;-69
2021/12/29 05:51:21;;;;;;;29.52;12.77;;;8.20;99.90;;;;;;5008201;28;20168;-69
2021/12/29 05:53:46;;;;;;;30.52;12.38;;;8.20;99.90;;;;;;5012835;28;20682;-69
2021/12/29 05:56:12;;;;;;;26.98;12.23;;;8.30;99.90;;;;;;5027103;28;20254;-69
2021/12/29 05:58:38;;;;;;;31.55;11.50;;;8.30;99.90;;;;;;5019965;28;20132;-69
2021/12/29 06:01:04;;;;;;;32.97;13.65;;;8.30;99.90;;;;;;5003923;28;20057;-69
2021/12/29 06:03:29;;;;;;;33.55;11.68;;;8.30;99.90;;;;;;5028125;28;20428;-69
2021/12/29 06:05:55;;;;;;;28.92;13.70;;;8.30;99.90;;;;;;5011151;28;20095;-69
2021/12/29 06:08:21;;;;;;;30.45;13.48;;;8.30;99.90;;;;;;4991322;28;20054;-69
2021/12/29 06:10:47;;;;;;;37.13;14.02;;;8.30;99.90;;;;;;5015652;28;20041;-69
2021/12/29 06:13:13;;;;;;;32.58;12.57;;;8.30;99.90;;;;;;5020036;28;20046;-69
2021/12/29 06:15:39;;;;;;;29.30;13.73;;;8.30;99.90;;;;;;5012394;28;20045;-69
2021/12/29 06:18:05;;;;;;;35.45;13.35;;;8.30;99.90;;;;;;5011910;28;20131;-69
2021/12/29 06:20:31;;;;;;;33.10;13.48;;;8.30;99.90;;;;;;5011792;28;20176;-69
2021/12/29 06:22:56;;;;;;;36.25;13.23;;;8.30;99.90;;;;;;5010679;28;20061;-69
2021/12/29 06:25:22;;;;;;;29.02;11.98;;;8.30;99.90;;;;;;4996159;28;20050;-69
2021/12/29 06:27:49;;;;;;;28.08;12.43;;;8.30;99.90;;;;;;5010940;28;20054;-69
2021/12/29 06:30:16;;;;;;;34.22;11.57;;;8.30;99.90;;;;;;5011770;28;20472;-69
2021/12/29 06:32:42;;;;;;;33.40;12.65;;;8.30;99.90;;;;;;5009721;28;20437;-69
2021/12/29 06:35:11;;;;;;;30.63;12.82;;;8.30;99.90;;;;;;4998811;28;20056;-69
2021/12/29 06:37:36;;;;;;;33.25;14.63;;;8.30;99.90;;;;;;4994765;28;20061;-69
2021/12/29 06:40:03;;;;;;;42.00;14.07;;;8.30;99.90;;;;;;4999505;28;20186;-69
2021/12/29 06:42:28;;;;;;;42.65;13.13;;;8.30;99.90;;;;;;5011235;28;20054;-69
2021/12/29 06:44:55;;;;;;;44.35;14.07;;;8.30;99.90;;;;;;5011935;28;20048;-69
2021/12/29 06:47:21;;;;;;;39.60;15.52;;;8.30;99.90;;;;;;4994436;28;20046;-69
2021/12/29 06:49:46;;;;;;;44.30;14.57;;;8.30;99.90;;;;;;5018436;28;20053;-69
2021/12/29 06:52:12;;;;;;;51.92;17.23;;;8.30;99.90;;;;;;5024660;28;20041;-69
2021/12/29 06:54:38;;;;;;;36.50;14.43;;;8.30;99.90;;;;;;5030703;28;20489;-69
2021/12/29 06:57:04;;;;;;;40.00;14.35;;;8.30;99.90;;;;;;5028472;28;20048;-68
2021/12/29 06:59:30;;;;;;;48.97;14.82;;;8.30;99.90;;;;;;5019183;28;20042;-70
2021/12/29 07:01:56;;;;;;;46.85;12.95;;;8.30;99.90;;;;;;5006491;28;20057;-69
2021/12/29 07:04:23;;;;;;;45.92;14.82;;;8.30;99.90;;;;;;5018377;28;20045;-68
2021/12/29 07:06:50;;;;;;;41.08;13.95;;;8.30;99.90;;;;;;5014731;28;20077;-69
2021/12/29 07:09:16;;;;;;;39.35;14.63;;;8.30;99.90;;;;;;5010551;28;20042;-69
2021/12/29 07:11:42;;;;;;;64.53;15.15;;;8.30;99.90;;;;;;5004045;28;20118;-69
2021/12/29 07:14:09;;;;;;;36.17;14.50;;;8.40;99.90;;;;;;5012514;28;20486;-69
2021/12/29 07:16:35;;;;;;;60.80;15.43;;;8.30;99.90;;;;;;5022422;28;20409;-69
2021/12/29 07:19:01;;;;;;;32.45;11.15;;;8.30;99.90;;;;;;5029848;28;20045;-69
2021/12/29 07:21:27;;;;;;;27.38;11.02;;;8.40;99.90;;;;;;5030843;28;20475;-69
2021/12/29 07:23:54;;;;;;;59.38;12.43;;;8.40;99.90;;;;;;5019023;28;20046;-69
2021/12/29 07:26:23;;;;;;;32.60;10.75;;;8.40;99.90;;;;;;5014278;28;20111;-69
2021/12/29 07:28:50;;;;;;;32.50;9.48;;;8.40;99.90;;;;;;5018140;28;20053;-69
2021/12/29 07:31:16;;;;;;;40.83;10.73;;;8.40;99.90;;;;;;5018332;28;20650;-69
2021/12/29 07:33:42;;;;;;;64.40;10.80;;;8.40;99.90;;;;;;5003584;28;20042;-69
2021/12/29 07:36:07;;;;;;;42.15;9.00;;;8.40;99.90;;;;;;5023208;28;20405;-69
2021/12/29 07:38:33;;;;;;;32.45;8.98;;;8.40;99.90;;;;;;5017676;28;20128;-69
2021/12/29 07:40:59;;;;;;;56.45;8.68;;;8.40;99.90;;;;;;5020961;28;20042;-69
2021/12/29 07:43:24;;;;;;;44.50;8.82;;;8.40;99.90;;;;;;4994838;28;20658;-69
2021/12/29 07:45:51;;;;;;;31.73;9.88;;;8.40;99.90;;;;;;5009955;28;20052;-69
2021/12/29 07:48:18;;;;;;;39.40;8.80;;;8.30;99.90;;;;;;5029743;28;20500;-69
2021/12/29 07:50:44;;;;;;;23.88;8.27;;;8.30;99.90;;;;;;5023269;28;20057;-69
2021/12/29 07:53:10;;;;;;;44.28;8.27;;;8.30;99.90;;;;;;5012086;28;20049;-69
2021/12/29 07:55:35;;;;;;;28.75;8.55;;;8.30;99.90;;;;;;5011835;28;20103;-69
2021/12/29 07:58:01;;;;;;;44.03;9.85;;;8.30;99.90;;;;;;5014510;28;20073;-69
2021/12/29 08:00:27;;;;;;;28.42;7.88;;;8.40;99.90;;;;;;5030054;28;20041;-69
2021/12/29 08:02:53;;;;;;;31.27;8.95;;;8.30;99.90;;;;;;5021517;28;20497;-69
2021/12/29 08:05:19;;;;;;;35.45;8.90;;;8.30;99.90;;;;;;5018466;28;20432;-69
2021/12/29 08:07:46;;;;;;;22.05;9.30;;;8.30;99.90;;;;;;5021807;28;20042;-69
2021/12/29 08:10:12;;;;;;;20.85;8.30;;;8.30;99.90;;;;;;5004429;28;20100;-69
2021/12/29 08:12:37;;;;;;;31.10;9.48;;;8.30;99.90;;;;;;5016934;28;20089;-69
2021/12/29 08:15:04;;;;;;;17.45;8.80;;;8.30;99.90;;;;;;5015238;28;20061;-69
2021/12/29 08:17:32;;;;;;;18.85;8.75;;;8.30;99.90;;;;;;5018294;28;20045;-69
2021/12/29 08:19:59;;;;;;;23.88;9.65;;;8.30;99.90;;;;;;5013151;28;20547;-69
2021/12/29 08:22:24;;;;;;;20.13;8.77;;;8.40;99.90;;;;;;5002558;28;20058;-70
2021/12/29 08:24:50;;;;;;;20.05;8.50;;;8.40;99.90;;;;;;5003541;28;20081;-69
2021/12/29 08:27:15;;;;;;;15.75;8.35;;;8.30;99.90;;;;;;5018826;28;20065;-69
2021/12/29 08:29:41;;;;;;;17.08;8.05;;;8.30;99.90;;;;;;5020286;28;20038;-69
2021/12/29 08:32:07;;;;;;;15.38;7.30;;;8.40;99.90;;;;;;5024068;28;20660;-69
2021/12/29 08:34:32;;;;;;;20.50;7.75;;;8.40;99.90;;;;;;5028808;28;20107;-69
2021/12/29 08:36:58;;;;;;;19.92;8.07;;;8.50;99.90;;;;;;5027781;28;20037;-69
2021/12/29 08:39:25;;;;;;;18.98;7.85;;;8.50;99.90;;;;;;5014699;28;20054;-69
2021/12/29 08:41:51;;;;;;;18.60;6.85;;;8.50;99.90;;;;;;5009395;28;20041;-69
2021/12/29 08:44:16;;;;;;;15.25;7.25;;;8.50;99.90;;;;;;5009276;28;20057;-69
2021/12/29 08:46:43;;;;;;;19.13;8.05;;;8.50;99.90;;;;;;5019073;28;20550;-69
2021/12/29 08:49:08;;;;;;;14.43;7.07;;;8.50;99.90;;;;;;5027305;28;20102;-69
2021/12/29 08:51:34;;;;;;;18.90;7.75;;;8.50;99.90;;;;;;5012388;28;20045;-69
2021/12/29 08:54:00;;;;;;;17.48;6.82;;;8.50;99.90;;;;;;5020712;28;20075;-69
2021/12/29 08:56:26;;;;;;;12.45;6.35;;;8.40;99.90;;;;;;5020842;28;20629;-68
2021/12/29 08:58:53;;;;;;;15.93;6.00;;;8.40;99.90;;;;;;5033555;28;20120;-70
2021/12/29 09:01:20;;;;;;;16.00;5.78;;;8.40;99.90;;;;;;5019275;28;20045;-70
2021/12/29 09:03:48;;;;;;;15.68;5.00;;;8.40;99.90;;;;;;5017521;28;20576;-70
2021/12/29 09:06:13;;;;;;;14.63;6.03;;;8.40;99.90;;;;;;5010537;28;20046;-70
2021/12/29 09:08:39;;;;;;;22.77;6.40;;;8.40;99.90;;;;;;5008675;28;20042;-71
2021/12/29 09:11:05;;;;;;;12.98;4.85;;;8.40;99.90;;;;;;5012139;28;20058;-71
2021/12/29 09:13:30;;;;;;;14.98;4.47;;;8.40;99.90;;;;;;4991661;28;20046;-71
2021/12/29 09:15:56;;;;;;;10.52;3.88;;;8.40;99.90;;;;;;4991983;28;20042;-71
2021/12/29 09:18:23;;;;;;;19.20;5.25;;;8.40;99.90;;;;;;5005161;28;20093;-71
2021/12/29 09:20:50;;;;;;;18.00;5.78;;;8.50;99.90;;;;;;4991710;28;20045;-71
2021/12/29 09:23:17;;;;;;;16.52;4.78;;;8.50;99.90;;;;;;5009574;28;20107;-70
2021/12/29 09:25:44;;;;;;;16.05;5.20;;;8.40;99.90;;;;;;5002245;28;20540;-69
2021/12/29 09:28:12;;;;;;;16.35;4.32;;;8.40;99.90;;;;;;5015658;28;20045;-69
2021/12/29 09:30:40;;;;;;;13.45;4.47;;;8.40;99.90;;;;;;5003903;28;20068;-70
2021/12/29 09:33:07;;;;;;;19.65;5.60;;;8.40;99.90;;;;;;5014411;28;20046;-69
2021/12/29 09:35:33;;;;;;;13.23;4.45;;;8.40;99.90;;;;;;4999944;28;20496;-70
2021/12/29 09:38:00;;;;;;;21.17;6.65;;;8.40;99.90;;;;;;5026588;28;20053;-70
2021/12/29 09:40:26;;;;;;;11.85;4.55;;;8.40;99.90;;;;;;5020345;28;20042;-70
2021/12/29 09:42:54;;;;;;;27.08;8.27;;;8.40;99.90;;;;;;5007578;28;20050;-69
2021/12/29 09:45:20;;;;;;;16.85;5.32;;;8.40;99.90;;;;;;5018760;28;20050;-69
2021/12/29 09:47:46;;;;;;;23.70;5.82;;;8.50;99.90;;;;;;5009213;28;20473;-69
2021/12/29 09:50:16;;;;;;;20.17;4.75;;;8.40;99.90;;;;;;5016961;28;20045;-69
2021/12/29 09:52:42;;;;;;;21.35;5.97;;;8.50;99.90;;;;;;5018007;28;20045;-70
2021/12/29 09:55:11;;;;;;;22.40;5.60;;;8.50;99.90;;;;;;5019686;28;20624;-69
2021/12/29 09:57:44;;;;;;;24.48;5.07;;;8.50;99.90;;;;;;5025679;28;20546;-69
2021/12/29 10:00:22;;;;;;;15.77;4.47;;;8.50;99.90;;;;;;5027033;28;20112;-70
2021/12/29 10:02:48;;;;;;;16.27;4.97;;;8.50;99.90;;;;;;5012766;28;20038;-70
2021/12/29 10:05:14;;;;;;;15.05;4.32;;;8.40;99.90;;;;;;5011784;28;20057;-70
2021/12/29 10:07:40;;;;;;;21.67;4.78;;;8.50;99.90;;;;;;5012889;28;20060;-70
2021/12/29 10:10:20;;;;;;;10.65;3.78;;;8.50;99.90;;;;;;5031200;28;20045;-70
2021/12/29 10:12:46;;;;;;;24.13;4.45;;;8.40;99.90;;;;;;5004430;28;20200;-69
2021/12/29 10:15:12;;;;;;;18.92;4.40;;;8.40;99.90;;;;;;5026207;28;20045;-70
2021/12/29 10:17:38;;;;;;;20.75;5.47;;;8.40;99.90;;;;;;5030293;28;20041;-70
2021/12/29 10:20:10;;;;;;;21.75;4.95;;;8.50;99.90;;;;;;5022796;28;20091;-69
2021/12/29 10:22:36;;;;;;;18.55;4.80;;;8.40;99.90;;;;;;5009338;28;20049;-70
2021/12/29 10:25:14;;;;;;;21.20;5.07;;;8.50;99.90;;;;;;5022788;28;20485;-71
2021/12/29 10:27:41;;;;;;;34.00;6.28;;;8.50;99.90;;;;;;5006196;28;20080;-70
2021/12/29 10:30:25;;;;;;;19.77;5.30;;;8.50;99.90;;;;;;5007788;28;20464;-70
2021/12/29 10:32:55;;;;;;;19.48;4.38;;;8.50;99.90;;;;;;5024495;28;20041;-70
2021/12/29 10:35:24;;;;;;;12.05;5.13;;;8.50;99.90;;;;;;5024030;28;20728;-70
2021/12/29 10:37:52;;;;;;;17.48;4.25;;;8.50;99.90;;;;;;5017870;28;20122;-71
2021/12/29 10:40:29;;;;;;;21.48;4.60;;;8.40;99.90;;;;;;5012753;28;20065;-70
2021/12/29 10:42:58;;;;;;;20.27;4.50;;;8.40;99.90;;;;;;5030130;28;20048;-71
2021/12/29 10:45:29;;;;;;;17.02;5.18;;;8.40;99.90;;;;;;5023965;28;20034;-70
2021/12/29 10:47:55;;;;;;;18.15;4.97;;;8.50;99.90;;;;;;5026407;28;20436;-71
2021/12/29 10:50:21;;;;;;;16.10;4.60;;;8.40;99.90;;;;;;5013747;28;20041;-70
2021/12/29 10:52:50;;;;;;;27.35;5.13;;;8.50;99.90;;;;;;5029679;28;20797;-70
2021/12/29 10:55:19;;;;;;;24.38;5.10;;;8.50;99.90;;;;;;5012313;28;20065;-70
2021/12/29 10:57:46;;;;;;;22.95;5.47;;;8.50;99.90;;;;;;5029403;28;20045;-70
2021/12/29 11:00:18;;;;;;;26.20;4.70;;;8.50;99.90;;;;;;5011928;28;20050;-70
2021/12/29 11:02:46;;;;;;;23.98;5.38;;;8.50;99.90;;;;;;4994266;28;20516;-70
2021/12/29 11:05:12;;;;;;;27.70;5.30;;;8.50;99.90;;;;;;5027637;28;20401;-70
2021/12/29 11:07:39;;;;;;;22.45;5.47;;;8.50;99.90;;;;;;5011704;28;20046;-70
2021/12/29 11:10:12;;;;;;;26.65;6.32;;;8.60;99.90;;;;;;5010328;28;20095;-71
2021/12/29 11:12:54;;;;;;;34.35;6.43;;;8.60;99.90;;;;;;5018706;28;20508;-70
2021/12/29 11:15:26;;;;;;;36.83;8.05;;;8.60;99.90;;;;;;5030211;28;20505;-70
2021/12/29 11:17:55;;;;;;;27.52;6.13;;;8.60;99.90;;;;;;5006168;28;20037;-70
2021/12/29 11:20:24;;;;;;;28.55;5.32;;;8.60;99.90;;;;;;4994852;28;20042;-70
2021/12/29 11:22:51;;;;;;;32.75;6.70;;;8.60;99.90;;;;;;5027714;28;20112;-70
2021/12/29 11:25:27;;;;;;;32.10;6.25;;;8.60;99.90;;;;;;5028738;28;20043;-70
2021/12/29 11:27:53;;;;;;;22.60;5.53;;;8.60;99.90;;;;;;5023534;28;20057;-70
2021/12/29 11:30:18;;;;;;;23.63;6.22;;;8.60;99.90;;;;;;4994237;28;20056;-70
2021/12/29 11:32:46;;;;;;;29.30;5.57;;;8.60;99.90;;;;;;5014684;28;20064;-70
2021/12/29 11:35:18;;;;;;;23.95;5.32;;;8.60;99.90;;;;;;5021510;28;20033;-71
2021/12/29 11:37:55;;;;;;;18.02;5.63;;;8.60;99.90;;;;;;5011258;28;20037;-71
2021/12/29 11:40:30;;;;;;;28.02;5.47;;;8.60;99.90;;;;;;5030458;28;20060;-70
2021/12/29 11:42:56;;;;;;;24.83;5.15;;;8.60;99.90;;;;;;5029256;28;20444;-69
2021/12/29 11:45:23;;;;;;;24.10;4.60;;;8.60;99.90;;;;;;5029027;28;20730;-69
2021/12/29 11:47:50;;;;;;;22.33;4.60;;;8.60;99.90;;;;;;5011713;28;20125;-70
2021/12/29 11:50:26;;;;;;;13.32;3.53;;;8.70;99.90;;;;;;4998130;28;20088;-70
2021/12/29 11:52:59;;;;;;;21.23;5.68;;;8.70;99.90;;;;;;5006311;28;20068;-70
2021/12/29 11:55:30;;;;;;;19.25;4.30;;;8.70;99.90;;;;;;5014496;28;20056;-70
2021/12/29 11:58:18;;;;;;;18.25;5.20;;;8.70;99.90;;;;;;5027164;28;20041;-70
2021/12/29 12:00:47;;;;;;;29.13;6.18;;;8.70;99.90;;;;;;5027008;28;20050;-70
2021/12/29 12:03:15;;;;;;;21.30;6.38;;;8.70;99.90;;;;;;5019278;28;20081;-70
2021/12/29 12:05:47;;;;;;;15.90;5.90;;;8.70;99.90;;;;;;5025371;28;20444;-70
2021/12/29 12:08:23;;;;;;;16.15;5.07;;;8.70;99.90;;;;;;5029213;28;20084;-70
2021/12/29 12:10:50;;;;;;;21.63;6.05;;;8.80;99.90;;;;;;5019014;28;20052;-70
2021/12/29 12:13:28;;;;;;;9.90;3.95;;;8.70;99.90;;;;;;5011087;28;20726;-70
2021/12/29 12:16:08;;;;;;;20.23;4.75;;;8.80;99.90;;;;;;5008034;28;20041;-70
2021/12/29 12:18:52;;;;;;;15.82;5.72;;;8.80;99.90;;;;;;5021240;28;20042;-70
2021/12/29 12:21:29;;;;;;;;;;;8.80;99.90;;;;;;5023941;28;20042;-70
2021/12/29 12:24:13;;;;;;;11.43;5.03;;;8.80;99.90;;;;;;4994759;28;19921;-70
2021/12/29 12:26:57;;;;;;;17.67;7.07;;;8.80;99.90;;;;;;5013467;28;20041;-71
2021/12/29 12:29:26;;;;;;;12.30;3.70;;;8.80;99.90;;;;;;5018002;28;20501;-70
2021/12/29 12:32:10;;;;;;;10.38;3.92;;;8.80;99.90;;;;;;5013345;28;20556;-70
2021/12/29 12:34:55;;;;;;;13.40;4.70;;;8.80;99.90;;;;;;5013526;28;20042;-70
2021/12/29 12:37:28;;;;;;;13.88;4.43;;;8.90;99.90;;;;;;5026179;28;20045;-70
2021/12/29 12:39:55;;;;;;;13.10;4.35;;;8.80;99.90;;;;;;5018390;28;20045;-70
2021/12/29 12:42:22;;;;;;;12.88;3.58;;;8.80;99.90;;;;;;5003486;28;20073;-70
2021/12/29 12:44:48;;;;;;;13.27;4.28;;;8.80;99.90;;;;;;5001662;28;20046;-70
2021/12/29 12:47:14;;;;;;;18.63;4.68;;;8.80;99.90;;;;;;5010212;28;20413;-70
2021/12/29 12:49:42;;;;;;;13.45;4.68;;;8.70;99.90;;;;;;4997141;28;20127;-70
2021/12/29 12:52:11;;;;;;;14.88;5.55;;;8.70;99.90;;;;;;5016406;28;20084;-70
2021/12/29 12:54:46;;;;;;;12.23;4.07;;;8.70;99.90;;;;;;5002001;28;20061;-70